createdAt,value
2018-05-01T00:00:36.036Z,10.11
2018-05-01T00:01:36.024Z,10.07
2018-05-01T00:02:36.016Z,10.26
2018-05-01T00:03:36.019Z,10.25
2018-05-01T00:04:36.004Z,10.2
2018-05-01T00:05:35.751Z,10.22
2018-05-01T00:06:35.997Z,10.34
2018-05-01T00:07:35.979Z,10.26
2018-05-01T00:08:35.969Z,10.34
2018-05-01T00:09:35.959Z,10.4
2018-05-01T00:10:35.949Z,10.53
2018-05-01T00:11:35.949Z,10.59
2018-05-01T00:12:35.940Z,10.64
2018-05-01T00:13:35.675Z,10.6
2018-05-01T00:14:35.665Z,10.76
2018-05-01T00:15:35.912Z,10.78
2018-05-01T00:16:35.900Z,10.85
2018-05-01T00:17:35.895Z,10.88
2018-05-01T00:18:35.885Z,11.06
2018-05-01T00:19:35.914Z,11.04
2018-05-01T00:20:35.615Z,11.09
2018-05-01T00:21:35.861Z,11.22
2018-05-01T00:22:35.862Z,11.32
2018-05-01T00:23:35.593Z,11.22
2018-05-01T00:24:35.590Z,11.37
2018-05-01T00:25:35.828Z,11.4
2018-05-01T00:26:35.821Z,11.35
2018-05-01T00:27:35.816Z,11.39
2018-05-01T00:28:35.807Z,11.51
2018-05-01T00:29:35.804Z,11.55
2018-05-01T00:30:35.803Z,11.51
2018-05-01T00:31:35.787Z,11.64
2018-05-01T00:32:35.536Z,11.67
2018-05-01T00:33:35.769Z,11.72
2018-05-01T00:34:35.807Z,11.82
2018-05-01T00:35:35.500Z,11.79
2018-05-01T00:36:35.239Z,11.88
2018-05-01T00:37:35.736Z,11.95
2018-05-01T00:38:35.221Z,11.88
2018-05-01T00:39:35.724Z,11.99
2018-05-01T00:40:35.712Z,11.98
2018-05-01T00:41:35.714Z,12.04
2018-05-01T00:42:35.776Z,12.1
2018-05-01T00:43:35.771Z,12.1
2018-05-01T00:44:35.434Z,12.05
2018-05-01T00:45:35.676Z,12.07
2018-05-01T00:46:35.416Z,12.05
2018-05-01T00:47:35.664Z,12.12
2018-05-01T00:48:35.662Z,12.17
2018-05-01T00:49:35.654Z,12.19
2018-05-01T00:50:35.711Z,12.23
2018-05-01T00:51:35.453Z,12.17
2018-05-01T00:52:35.373Z,12.19
2018-05-01T00:53:35.625Z,12.27
2018-05-01T00:54:35.362Z,12.27
2018-05-01T00:55:35.603Z,12.31
2018-05-01T00:56:35.597Z,12.31
2018-05-01T00:57:35.595Z,12.29
2018-05-01T00:58:35.335Z,12.35
2018-05-01T00:59:35.576Z,12.39
2018-05-01T01:00:35.576Z,12.39
2018-05-01T01:01:35.560Z,12.39
2018-05-01T01:02:35.554Z,12.5
2018-05-01T01:03:35.644Z,12.45
2018-05-01T01:04:35.290Z,12.45
2018-05-01T01:05:35.279Z,12.45
2018-05-01T01:06:35.274Z,12.49
2018-05-01T01:07:35.519Z,12.5
2018-05-01T01:08:35.513Z,12.52
2018-05-01T01:09:35.504Z,12.56
2018-05-01T01:10:35.506Z,12.59
2018-05-01T01:11:35.502Z,12.57
2018-05-01T01:12:35.247Z,12.54
2018-05-01T01:13:35.485Z,12.56
2018-05-01T01:14:35.471Z,12.57
2018-05-01T01:15:35.468Z,12.54
2018-05-01T01:16:35.528Z,12.57
2018-05-01T01:17:35.523Z,12.5
2018-05-01T01:18:35.456Z,12.54
2018-05-01T01:19:35.439Z,12.49
2018-05-01T01:20:35.434Z,12.52
2018-05-01T01:21:35.172Z,12.54
2018-05-01T01:22:35.171Z,12.62
2018-05-01T01:23:35.411Z,12.56
2018-05-01T01:24:35.403Z,12.57
2018-05-01T01:25:35.397Z,12.6
2018-05-01T01:26:35.390Z,12.53
2018-05-01T01:27:35.382Z,12.65
2018-05-01T01:28:35.374Z,12.64
2018-05-01T01:29:35.371Z,12.67
2018-05-01T01:30:35.369Z,12.68
2018-05-01T01:31:35.103Z,12.68
2018-05-01T01:32:35.352Z,12.68
2018-05-01T01:33:35.340Z,12.65
2018-05-01T01:34:35.342Z,12.71
2018-05-01T01:35:35.325Z,12.65
2018-05-01T01:36:35.322Z,12.6
2018-05-01T01:37:35.325Z,12.68
2018-05-01T01:38:35.054Z,12.68
2018-05-01T01:39:35.303Z,12.68
2018-05-01T01:40:35.041Z,12.64
2018-05-01T01:41:35.293Z,12.62
2018-05-01T01:42:35.283Z,12.64
2018-05-01T01:43:35.025Z,12.72
2018-05-01T01:44:35.266Z,12.65
2018-05-01T01:45:35.265Z,12.72
2018-05-01T01:46:35.001Z,12.79
2018-05-01T01:47:35.249Z,12.82
2018-05-01T01:48:35.249Z,12.75
2018-05-01T01:49:35.237Z,12.72
2018-05-01T01:50:34.976Z,12.85
2018-05-01T01:51:34.968Z,12.78
2018-05-01T01:52:35.218Z,12.74
2018-05-01T01:53:35.211Z,12.85
2018-05-01T01:54:35.207Z,12.85
2018-05-01T01:55:34.941Z,12.82
2018-05-01T01:56:35.208Z,12.9
2018-05-01T01:57:34.933Z,12.9
2018-05-01T01:58:35.175Z,12.86
2018-05-01T01:59:35.184Z,12.87
2018-05-01T02:00:34.908Z,12.86
2018-05-01T02:01:35.154Z,12.85
2018-05-01T02:02:35.153Z,12.89
2018-05-01T02:03:35.144Z,12.92
2018-05-01T02:04:35.135Z,12.87
2018-05-01T02:05:35.135Z,12.95
2018-05-01T02:06:35.121Z,12.96
2018-05-01T02:07:34.862Z,13
2018-05-01T02:08:35.109Z,12.93
2018-05-01T02:09:35.104Z,12.87
2018-05-01T02:10:34.846Z,13.03
2018-05-01T02:11:35.107Z,12.95
2018-05-01T02:12:34.844Z,13.03
2018-05-01T02:13:34.905Z,13.01
2018-05-01T02:14:35.068Z,13.07
2018-05-01T02:15:35.074Z,13
2018-05-01T02:16:35.058Z,12.97
2018-05-01T02:17:35.058Z,13
2018-05-01T02:18:34.790Z,13.01
2018-05-01T02:19:34.784Z,13.11
2018-05-01T02:20:34.781Z,13.1
2018-05-01T02:21:35.021Z,13.1
2018-05-01T02:22:34.765Z,13.15
2018-05-01T02:23:35.010Z,13.17
2018-05-01T02:24:35.002Z,13.17
2018-05-01T02:25:35.008Z,13.23
2018-05-01T02:26:34.994Z,13.23
2018-05-01T02:27:34.989Z,13.3
2018-05-01T02:28:34.977Z,13.23
2018-05-01T02:29:34.987Z,13.2
2018-05-01T02:30:34.967Z,13.2
2018-05-01T02:31:34.969Z,13.23
2018-05-01T02:32:34.953Z,13.22
2018-05-01T02:33:34.955Z,13.25
2018-05-01T02:34:34.942Z,13.23
2018-05-01T02:35:34.948Z,13.25
2018-05-01T02:36:34.928Z,13.25
2018-05-01T02:37:34.925Z,13.3
2018-05-01T02:38:34.914Z,13.25
2018-05-01T02:39:34.912Z,13.23
2018-05-01T02:40:34.901Z,13.17
2018-05-01T02:41:34.897Z,13.36
2018-05-01T02:42:34.900Z,13.23
2018-05-01T02:43:34.897Z,13.32
2018-05-01T02:44:34.719Z,13.28
2018-05-01T02:45:34.873Z,13.25
2018-05-01T02:46:34.863Z,13.28
2018-05-01T02:47:34.863Z,13.32
2018-05-01T02:48:34.864Z,13.26
2018-05-01T02:49:34.853Z,13.22
2018-05-01T02:50:34.836Z,13.29
2018-05-01T02:51:34.837Z,13.23
2018-05-01T02:52:34.824Z,13.22
2018-05-01T02:53:34.818Z,13.25
2018-05-01T02:54:34.841Z,13.28
2018-05-01T02:55:34.808Z,13.22
2018-05-01T02:56:34.801Z,13.26
2018-05-01T02:57:34.793Z,13.2
2018-05-01T02:58:34.798Z,13.23
2018-05-01T02:59:34.787Z,13.25
2018-05-01T03:00:34.521Z,13.26
2018-05-01T03:01:34.768Z,13.2
2018-05-01T03:02:34.509Z,13.17
2018-05-01T03:03:34.756Z,13.25
2018-05-01T03:04:34.762Z,13.25
2018-05-01T03:05:34.747Z,13.26
2018-05-01T03:06:34.745Z,13.25
2018-05-01T03:07:34.789Z,13.22
2018-05-01T03:08:34.728Z,13.29
2018-05-01T03:09:34.464Z,13.29
2018-05-01T03:10:34.730Z,13.25
2018-05-01T03:11:34.707Z,13.25
2018-05-01T03:12:34.444Z,13.22
2018-05-01T03:13:34.705Z,13.25
2018-05-01T03:14:34.709Z,13.14
2018-05-01T03:15:34.683Z,13.17
2018-05-01T03:16:34.673Z,13.2
2018-05-01T03:17:34.687Z,13.17
2018-05-01T03:18:34.657Z,13.15
2018-05-01T03:19:34.651Z,13.17
2018-05-01T03:20:34.649Z,13.19
2018-05-01T03:21:34.659Z,13.17
2018-05-01T03:22:34.637Z,13.14
2018-05-01T03:23:34.629Z,13.17
2018-05-01T03:24:34.618Z,13.22
2018-05-01T03:25:34.619Z,13.25
2018-05-01T03:26:34.615Z,13.26
2018-05-01T03:27:34.353Z,13.25
2018-05-01T03:28:34.623Z,13.23
2018-05-01T03:29:34.589Z,13.29
2018-05-01T03:30:34.333Z,13.28
2018-05-01T03:31:34.583Z,13.29
2018-05-01T03:32:34.582Z,13.26
2018-05-01T03:33:34.563Z,13.25
2018-05-01T03:34:34.565Z,13.3
2018-05-01T03:35:34.551Z,13.28
2018-05-01T03:36:34.298Z,13.3
2018-05-01T03:37:34.540Z,13.25
2018-05-01T03:38:34.532Z,13.25
2018-05-01T03:39:34.526Z,13.17
2018-05-01T03:40:34.516Z,13.28
2018-05-01T03:41:34.517Z,13.14
2018-05-01T03:42:34.509Z,13.12
2018-05-01T03:43:34.500Z,13.22
2018-05-01T03:44:34.490Z,13.2
2018-05-01T03:45:34.487Z,13.2
2018-05-01T03:46:34.480Z,13.15
2018-05-01T03:47:34.473Z,13.22
2018-05-01T03:48:34.468Z,13.23
2018-05-01T03:49:34.208Z,13.25
2018-05-01T03:50:34.227Z,13.2
2018-05-01T03:51:34.453Z,13.26
2018-05-01T03:52:34.187Z,13.26
2018-05-01T03:53:34.438Z,13.26
2018-05-01T03:54:34.179Z,13.29
2018-05-01T03:55:34.423Z,13.23
2018-05-01T03:56:34.159Z,13.38
2018-05-01T03:57:34.414Z,13.33
2018-05-01T03:58:34.404Z,13.42
2018-05-01T03:59:34.143Z,13.33
2018-05-01T04:00:34.135Z,13.42
2018-05-01T04:01:34.382Z,13.52
2018-05-01T04:02:34.378Z,13.55
2018-05-01T04:03:34.118Z,13.55
2018-05-01T04:04:34.379Z,13.64
2018-05-01T04:05:33.851Z,13.67
2018-05-01T04:06:34.349Z,13.7
2018-05-01T04:07:34.351Z,13.77
2018-05-01T04:08:34.087Z,13.77
2018-05-01T04:09:34.334Z,13.85
2018-05-01T04:10:34.327Z,13.89
2018-05-01T04:11:34.330Z,13.87
2018-05-01T04:12:34.063Z,13.91
2018-05-01T04:13:34.305Z,14.02
2018-05-01T04:14:34.302Z,13.97
2018-05-01T04:15:34.303Z,14.06
2018-05-01T04:16:34.289Z,14.17
2018-05-01T04:17:34.285Z,14.14
2018-05-01T04:18:34.283Z,14.18
2018-05-01T04:19:34.281Z,14.21
2018-05-01T04:20:34.264Z,14.33
2018-05-01T04:21:34.258Z,14.24
2018-05-01T04:22:34.251Z,14.35
2018-05-01T04:23:34.258Z,14.33
2018-05-01T04:24:34.245Z,14.45
2018-05-01T04:25:34.238Z,14.54
2018-05-01T04:26:33.979Z,14.51
2018-05-01T04:27:34.226Z,14.54
2018-05-01T04:28:33.965Z,14.6
2018-05-01T04:29:33.959Z,14.69
2018-05-01T04:30:34.217Z,14.62
2018-05-01T04:31:34.199Z,14.7
2018-05-01T04:32:34.194Z,14.77
2018-05-01T04:33:33.937Z,14.77
2018-05-01T04:34:34.196Z,14.84
2018-05-01T04:35:34.187Z,14.86
2018-05-01T04:36:34.188Z,14.84
2018-05-01T04:37:34.172Z,14.88
2018-05-01T04:38:34.164Z,14.8
2018-05-01T04:39:34.163Z,14.91
2018-05-01T04:40:34.156Z,14.99
2018-05-01T04:41:33.894Z,14.96
2018-05-01T04:42:34.147Z,15.03
2018-05-01T04:43:33.886Z,15.03
2018-05-01T04:44:33.880Z,15.06
2018-05-01T04:45:33.874Z,15.16
2018-05-01T04:46:34.120Z,15.16
2018-05-01T04:47:34.116Z,15.2
2018-05-01T04:48:34.109Z,15.2
2018-05-01T04:49:34.107Z,15.35
2018-05-01T04:50:33.850Z,15.38
2018-05-01T04:51:34.110Z,15.41
2018-05-01T04:52:34.092Z,15.41
2018-05-01T04:53:34.086Z,15.34
2018-05-01T04:54:34.096Z,15.36
2018-05-01T04:55:34.079Z,15.49
2018-05-01T04:56:34.079Z,15.51
2018-05-01T04:57:34.070Z,15.54
2018-05-01T04:58:33.911Z,15.54
2018-05-01T04:59:34.058Z,15.51
2018-05-01T05:00:34.053Z,15.75
2018-05-01T05:01:34.050Z,15.78
2018-05-01T05:02:33.799Z,15.84
2018-05-01T05:03:33.788Z,15.89
2018-05-01T05:04:34.039Z,16.07
2018-05-01T05:05:34.037Z,16.02
2018-05-01T05:06:34.024Z,16.15
2018-05-01T05:07:34.021Z,16.12
2018-05-01T05:08:34.017Z,16.21
2018-05-01T05:09:34.197Z,16.34
2018-05-01T05:10:34.011Z,16.34
2018-05-01T05:11:34.007Z,16.42
2018-05-01T05:12:34.008Z,16.43
2018-05-01T05:13:33.997Z,16.46
2018-05-01T05:14:33.997Z,16.52
2018-05-01T05:15:33.987Z,16.56
2018-05-01T05:16:33.985Z,16.6
2018-05-01T05:17:33.991Z,16.64
2018-05-01T05:18:33.986Z,16.61
2018-05-01T05:19:33.984Z,16.68
2018-05-01T05:20:33.983Z,16.78
2018-05-01T05:21:33.966Z,16.81
2018-05-01T05:22:33.960Z,17
2018-05-01T05:23:33.958Z,17.15
2018-05-01T05:24:33.705Z,17.33
2018-05-01T05:25:33.963Z,17.56
2018-05-01T05:26:33.947Z,17.87
2018-05-01T05:27:33.961Z,18.29
2018-05-01T05:28:33.691Z,18.67
2018-05-01T05:29:33.943Z,19.18
2018-05-01T05:30:33.939Z,19.47
2018-05-01T05:31:33.931Z,19.63
2018-05-01T05:32:33.938Z,19.86
2018-05-01T05:33:33.928Z,19.95
2018-05-01T05:34:33.676Z,20.05
2018-05-01T05:35:33.939Z,20.08
2018-05-01T05:36:33.673Z,20.11
2018-05-01T05:37:33.929Z,20.17
2018-05-01T05:38:33.936Z,20.28
2018-05-01T05:39:33.675Z,20.29
2018-05-01T05:40:34.171Z,20.32
2018-05-01T05:41:33.670Z,20.29
2018-05-01T05:42:33.922Z,20.38
2018-05-01T05:43:33.918Z,20.31
2018-05-01T05:44:33.671Z,20.29
2018-05-01T05:45:33.943Z,20.2
2018-05-01T05:46:33.923Z,20.2
2018-05-01T05:47:33.921Z,20.18
2018-05-01T05:48:33.931Z,20.2
2018-05-01T05:49:33.915Z,19.99
2018-05-01T05:50:33.913Z,20.08
2018-05-01T05:51:33.913Z,19.96
2018-05-01T05:52:33.910Z,19.92
2018-05-01T05:53:33.910Z,19.81
2018-05-01T05:54:33.655Z,19.74
2018-05-01T05:55:33.909Z,19.69
2018-05-01T05:56:33.904Z,19.43
2018-05-01T05:57:33.903Z,19.37
2018-05-01T05:58:33.902Z,19.26
2018-05-01T05:59:33.902Z,19.18
2018-05-01T06:00:33.901Z,18.92
2018-05-01T06:01:33.655Z,18.76
2018-05-01T06:02:33.896Z,18.73
2018-05-01T06:03:33.894Z,18.6
2018-05-01T06:04:33.895Z,18.52
2018-05-01T06:05:33.644Z,18.5
2018-05-01T06:06:33.889Z,18.42
2018-05-01T06:07:33.655Z,18.3
2018-05-01T06:08:33.894Z,18.3
2018-05-01T06:09:33.893Z,18.3
2018-05-01T06:10:33.887Z,18.32
2018-05-01T06:11:33.628Z,18.3
2018-05-01T06:12:33.622Z,18.27
2018-05-01T06:13:34.129Z,18.32
2018-05-01T06:14:33.880Z,18.29
2018-05-01T06:15:33.620Z,18.3
2018-05-01T06:16:33.872Z,18.44
2018-05-01T06:17:33.869Z,18.42
2018-05-01T06:18:33.863Z,18.41
2018-05-01T06:19:33.609Z,18.51
2018-05-01T06:20:33.610Z,18.5
2018-05-01T06:21:33.859Z,18.51
2018-05-01T06:22:33.861Z,18.52
2018-05-01T06:23:33.948Z,18.44
2018-05-01T06:24:33.602Z,18.48
2018-05-01T06:25:33.598Z,18.44
2018-05-01T06:26:33.599Z,18.47
2018-05-01T06:27:33.858Z,18.47
2018-05-01T06:28:33.848Z,18.45
2018-05-01T06:29:33.846Z,18.3
2018-05-01T06:30:33.854Z,18.32
2018-05-01T06:31:33.845Z,18.32
2018-05-01T06:32:33.840Z,18.29
2018-05-01T06:33:33.855Z,18.23
2018-05-01T06:34:33.840Z,18.11
2018-05-01T06:35:33.580Z,18.03
2018-05-01T06:36:33.854Z,18
2018-05-01T06:37:34.022Z,17.92
2018-05-01T06:38:33.827Z,17.9
2018-05-01T06:39:33.830Z,17.84
2018-05-01T06:40:33.827Z,17.95
2018-05-01T06:41:33.820Z,17.96
2018-05-01T06:42:33.842Z,18.21
2018-05-01T06:43:33.822Z,18.32
2018-05-01T06:44:33.831Z,18.55
2018-05-01T06:45:33.562Z,18.84
2018-05-01T06:46:33.575Z,19.13
2018-05-01T06:47:33.819Z,19.31
2018-05-01T06:48:33.814Z,19.4
2018-05-01T06:49:33.558Z,19.48
2018-05-01T06:50:33.813Z,19.69
2018-05-01T06:51:33.823Z,19.86
2018-05-01T06:52:33.811Z,19.88
2018-05-01T06:53:33.557Z,19.86
2018-05-01T06:54:33.561Z,19.71
2018-05-01T06:55:33.816Z,19.61
2018-05-01T06:56:33.817Z,19.43
2018-05-01T06:57:33.559Z,19.36
2018-05-01T06:58:33.557Z,19.19
2018-05-01T06:59:33.813Z,19.02
2018-05-01T07:00:33.559Z,18.99
2018-05-01T07:01:33.823Z,18.91
2018-05-01T07:02:33.814Z,18.81
2018-05-01T07:03:33.555Z,18.72
2018-05-01T07:04:34.159Z,18.7
2018-05-01T07:05:33.811Z,18.66
2018-05-01T07:06:33.808Z,18.9
2018-05-01T07:07:33.558Z,19.1
2018-05-01T07:08:33.806Z,19.55
2018-05-01T07:09:33.553Z,19.94
2018-05-01T07:10:33.816Z,20.06
2018-05-01T07:11:33.553Z,20.28
2018-05-01T07:12:33.807Z,20.36
2018-05-01T07:13:33.558Z,20.38
2018-05-01T07:14:33.838Z,20.39
2018-05-01T07:15:33.557Z,20.29
2018-05-01T07:16:33.824Z,20.17
2018-05-01T07:17:33.810Z,20.14
2018-05-01T07:18:33.560Z,20.11
2018-05-01T07:19:33.831Z,20.05
2018-05-01T07:20:33.822Z,20.06
2018-05-01T07:21:33.818Z,19.99
2018-05-01T07:22:33.812Z,19.95
2018-05-01T07:23:33.817Z,19.91
2018-05-01T07:24:33.560Z,19.94
2018-05-01T07:25:33.820Z,19.96
2018-05-01T07:26:33.814Z,19.94
2018-05-01T07:27:34.181Z,20.02
2018-05-01T07:28:33.812Z,20.1
2018-05-01T07:29:33.814Z,20.06
2018-05-01T07:30:33.818Z,20.1
2018-05-01T07:31:33.560Z,20.08
2018-05-01T07:32:33.820Z,20.05
2018-05-01T07:33:33.811Z,20.06
2018-05-01T07:34:33.307Z,20.11
2018-05-01T07:35:34.077Z,20.06
2018-05-01T07:36:33.808Z,20.16
2018-05-01T07:37:33.554Z,20.23
2018-05-01T07:38:33.806Z,20.26
2018-05-01T07:39:33.553Z,20.29
2018-05-01T07:40:33.553Z,20.32
2018-05-01T07:41:33.744Z,20.38
2018-05-01T07:42:33.557Z,20.55
2018-05-01T07:43:33.812Z,20.8
2018-05-01T07:44:33.806Z,20.99
2018-05-01T07:45:33.809Z,21.16
2018-05-01T07:46:33.818Z,21.31
2018-05-01T07:47:33.809Z,21.49
2018-05-01T07:48:33.830Z,21.62
2018-05-01T07:49:33.563Z,21.61
2018-05-01T07:50:33.876Z,21.67
2018-05-01T07:51:33.807Z,21.64
2018-05-01T07:52:33.554Z,21.65
2018-05-01T07:53:33.811Z,21.62
2018-05-01T07:54:33.559Z,21.58
2018-05-01T07:55:33.811Z,21.56
2018-05-01T07:56:33.816Z,21.52
2018-05-01T07:57:33.559Z,21.49
2018-05-01T07:58:33.812Z,21.5
2018-05-01T07:59:33.816Z,21.46
2018-05-01T08:00:33.313Z,21.62
2018-05-01T08:01:33.833Z,21.83
2018-05-01T08:02:33.822Z,21.94
2018-05-01T08:03:33.567Z,22.07
2018-05-01T08:04:33.579Z,22.21
2018-05-01T08:05:33.820Z,22.22
2018-05-01T08:06:33.576Z,22.22
2018-05-01T08:07:33.828Z,22.27
2018-05-01T08:08:33.833Z,22.33
2018-05-01T08:09:33.832Z,22.42
2018-05-01T08:10:33.837Z,22.49
2018-05-01T08:11:33.582Z,22.47
2018-05-01T08:12:33.858Z,22.43
2018-05-01T08:13:33.842Z,22.52
2018-05-01T08:14:33.842Z,22.47
2018-05-01T08:15:33.849Z,22.61
2018-05-01T08:16:33.594Z,22.6
2018-05-01T08:17:33.851Z,22.72
2018-05-01T08:18:33.959Z,22.9
2018-05-01T08:19:33.610Z,22.9
2018-05-01T08:20:33.624Z,22.92
2018-05-01T08:21:33.861Z,23.07
2018-05-01T08:22:33.862Z,23.19
2018-05-01T08:23:33.360Z,23.2
2018-05-01T08:24:34.173Z,23.4
2018-05-01T08:25:33.618Z,23.38
2018-05-01T08:26:33.882Z,23.43
2018-05-01T08:27:33.880Z,23.5
2018-05-01T08:28:33.893Z,23.39
2018-05-01T08:29:33.898Z,23.38
2018-05-01T08:30:33.642Z,23.25
2018-05-01T08:31:33.639Z,23.16
2018-05-01T08:32:33.893Z,23.09
2018-05-01T08:33:33.899Z,22.86
2018-05-01T08:34:33.910Z,22.55
2018-05-01T08:35:33.644Z,22.35
2018-05-01T08:36:33.899Z,22.36
2018-05-01T08:37:33.652Z,22.3
2018-05-01T08:38:33.907Z,22.24
2018-05-01T08:39:33.998Z,22.15
2018-05-01T08:40:33.652Z,22.07
2018-05-01T08:41:33.720Z,22.07
2018-05-01T08:42:33.912Z,21.92
2018-05-01T08:43:33.922Z,21.86
2018-05-01T08:44:33.659Z,21.68
2018-05-01T08:45:33.918Z,21.69
2018-05-01T08:46:33.918Z,21.72
2018-05-01T08:47:33.915Z,21.69
2018-05-01T08:48:33.917Z,21.59
2018-05-01T08:49:33.926Z,21.61
2018-05-01T08:50:33.921Z,21.61
2018-05-01T08:51:33.924Z,21.53
2018-05-01T08:52:33.919Z,21.42
2018-05-01T08:53:33.923Z,21.29
2018-05-01T08:54:33.673Z,21.25
2018-05-01T08:55:33.924Z,21.19
2018-05-01T08:56:33.925Z,21.21
2018-05-01T08:57:33.922Z,21.13
2018-05-01T08:58:33.933Z,21.13
2018-05-01T08:59:33.928Z,21.07
2018-05-01T09:00:33.946Z,21.07
2018-05-01T09:01:33.940Z,21.03
2018-05-01T09:02:33.922Z,21.04
2018-05-01T09:03:33.672Z,21.03
2018-05-01T09:04:33.941Z,20.98
2018-05-01T09:05:33.927Z,20.97
2018-05-01T09:06:33.922Z,20.98
2018-05-01T09:07:33.929Z,20.99
2018-05-01T09:08:33.668Z,20.95
2018-05-01T09:09:33.737Z,20.85
2018-05-01T09:10:33.665Z,20.8
2018-05-01T09:11:33.673Z,20.91
2018-05-01T09:12:33.924Z,20.97
2018-05-01T09:13:33.669Z,21.04
2018-05-01T09:14:33.673Z,21.03
2018-05-01T09:15:33.930Z,21.07
2018-05-01T09:16:33.921Z,21.07
2018-05-01T09:17:33.939Z,21.22
2018-05-01T09:18:34.050Z,21.14
2018-05-01T09:19:33.669Z,21.17
2018-05-01T09:20:33.920Z,21.35
2018-05-01T09:21:33.919Z,21.38
2018-05-01T09:22:33.665Z,21.31
2018-05-01T09:23:33.668Z,21.46
2018-05-01T09:24:33.667Z,21.58
2018-05-01T09:25:33.882Z,21.71
2018-05-01T09:26:33.677Z,21.75
2018-05-01T09:27:33.921Z,21.84
2018-05-01T09:28:33.677Z,21.77
2018-05-01T09:29:33.671Z,21.72
2018-05-01T09:30:33.956Z,21.65
2018-05-01T09:31:33.668Z,21.68
2018-05-01T09:32:33.672Z,21.59
2018-05-01T09:33:33.931Z,21.62
2018-05-01T09:34:33.920Z,21.65
2018-05-01T09:35:33.667Z,21.68
2018-05-01T09:36:33.668Z,21.68
2018-05-01T09:37:33.923Z,21.72
2018-05-01T09:38:33.678Z,21.83
2018-05-01T09:39:33.925Z,21.83
2018-05-01T09:40:33.932Z,21.82
2018-05-01T09:41:33.927Z,21.68
2018-05-01T09:42:33.671Z,21.62
2018-05-01T09:43:33.925Z,21.58
2018-05-01T09:44:33.677Z,21.42
2018-05-01T09:45:33.928Z,21.28
2018-05-01T09:46:33.941Z,21.21
2018-05-01T09:47:34.110Z,21.21
2018-05-01T09:48:33.933Z,21.17
2018-05-01T09:49:33.929Z,21.19
2018-05-01T09:50:33.682Z,21.17
2018-05-01T09:51:33.931Z,21.03
2018-05-01T09:52:33.929Z,20.87
2018-05-01T09:53:33.931Z,20.69
2018-05-01T09:54:33.676Z,20.59
2018-05-01T09:55:33.933Z,20.38
2018-05-01T09:56:33.933Z,20.28
2018-05-01T09:57:33.932Z,20.08
2018-05-01T09:58:33.935Z,19.94
2018-05-01T09:59:33.952Z,19.66
2018-05-01T10:00:33.688Z,19.51
2018-05-01T10:01:33.932Z,19.32
2018-05-01T10:02:33.692Z,19.13
2018-05-01T10:03:33.683Z,19.06
2018-05-01T10:04:33.957Z,18.95
2018-05-01T10:05:33.929Z,18.81
2018-05-01T10:06:33.923Z,18.73
2018-05-01T10:07:33.673Z,18.58
2018-05-01T10:08:33.933Z,18.5
2018-05-01T10:09:33.919Z,18.35
2018-05-01T10:10:33.708Z,18.29
2018-05-01T10:11:33.666Z,18.21
2018-05-01T10:12:33.914Z,18.07
2018-05-01T10:13:33.986Z,18.03
2018-05-01T10:14:33.910Z,17.93
2018-05-01T10:15:33.910Z,17.95
2018-05-01T10:16:33.661Z,17.89
2018-05-01T10:17:33.929Z,17.72
2018-05-01T10:18:33.903Z,17.72
2018-05-01T10:19:33.646Z,17.66
2018-05-01T10:20:33.914Z,17.63
2018-05-01T10:21:33.650Z,17.72
2018-05-01T10:22:33.907Z,17.58
2018-05-01T10:23:33.894Z,17.59
2018-05-01T10:24:33.898Z,17.56
2018-05-01T10:25:33.897Z,17.63
2018-05-01T10:26:33.881Z,17.56
2018-05-01T10:27:33.883Z,17.62
2018-05-01T10:28:33.896Z,17.59
2018-05-01T10:29:33.621Z,17.59
2018-05-01T10:30:33.883Z,17.55
2018-05-01T10:31:33.867Z,17.58
2018-05-01T10:32:33.611Z,17.52
2018-05-01T10:33:33.880Z,17.59
2018-05-01T10:34:33.862Z,17.54
2018-05-01T10:35:33.601Z,17.48
2018-05-01T10:36:33.608Z,17.52
2018-05-01T10:37:33.856Z,17.44
2018-05-01T10:38:34.017Z,17.38
2018-05-01T10:39:33.851Z,17.38
2018-05-01T10:40:33.843Z,17.23
2018-05-01T10:41:33.839Z,17.26
2018-05-01T10:42:33.834Z,17.33
2018-05-01T10:43:33.834Z,17.31
2018-05-01T10:44:33.321Z,17.36
2018-05-01T10:45:33.575Z,17.25
2018-05-01T10:46:33.823Z,17.36
2018-05-01T10:47:33.835Z,17.23
2018-05-01T10:48:33.817Z,17.3
2018-05-01T10:49:33.828Z,17.21
2018-05-01T10:50:33.810Z,17.15
2018-05-01T10:51:33.804Z,17.21
2018-05-01T10:52:33.807Z,17.28
2018-05-01T10:53:33.543Z,17.23
2018-05-01T10:54:33.795Z,17.18
2018-05-01T10:55:33.788Z,17.16
2018-05-01T10:56:33.791Z,17.22
2018-05-01T10:57:33.781Z,17.21
2018-05-01T10:58:33.779Z,17.22
2018-05-01T10:59:33.528Z,17.3
2018-05-01T11:00:33.672Z,17.31
2018-05-01T11:01:33.549Z,17.3
2018-05-01T11:02:33.516Z,17.3
2018-05-01T11:03:33.766Z,17.23
2018-05-01T11:04:33.512Z,17.25
2018-05-01T11:05:33.246Z,17.22
2018-05-01T11:06:33.495Z,17.22
2018-05-01T11:07:33.746Z,17.23
2018-05-01T11:08:33.489Z,17.22
2018-05-01T11:09:33.742Z,17.3
2018-05-01T11:10:33.514Z,17.36
2018-05-01T11:11:33.488Z,17.26
2018-05-01T11:12:33.745Z,17.26
2018-05-01T11:13:33.740Z,17.31
2018-05-01T11:14:33.467Z,17.31
2018-05-01T11:15:33.723Z,17.31
2018-05-01T11:16:33.717Z,17.26
2018-05-01T11:17:33.921Z,17.37
2018-05-01T11:18:33.719Z,17.26
2018-05-01T11:19:33.708Z,17.31
2018-05-01T11:20:33.455Z,17.4
2018-05-01T11:21:33.449Z,17.38
2018-05-01T11:22:33.724Z,17.38
2018-05-01T11:23:33.689Z,17.4
2018-05-01T11:24:33.711Z,17.37
2018-05-01T11:25:33.691Z,17.38
2018-05-01T11:26:33.425Z,17.4
2018-05-01T11:27:33.422Z,17.4
2018-05-01T11:28:33.780Z,17.41
2018-05-01T11:29:33.677Z,17.4
2018-05-01T11:30:33.662Z,17.38
2018-05-01T11:31:33.663Z,17.46
2018-05-01T11:32:33.658Z,17.49
2018-05-01T11:33:33.497Z,17.44
2018-05-01T11:34:33.413Z,17.44
2018-05-01T11:35:33.403Z,17.43
2018-05-01T11:36:33.650Z,17.48
2018-05-01T11:37:33.656Z,17.49
2018-05-01T11:38:33.641Z,17.37
2018-05-01T11:39:33.637Z,17.48
2018-05-01T11:40:33.627Z,17.54
2018-05-01T11:41:33.631Z,17.46
2018-05-01T11:42:33.624Z,17.52
2018-05-01T11:43:33.616Z,17.58
2018-05-01T11:44:33.617Z,17.58
2018-05-01T11:45:33.612Z,17.62
2018-05-01T11:46:33.449Z,17.62
2018-05-01T11:47:33.618Z,17.64
2018-05-01T11:48:33.345Z,17.64
2018-05-01T11:49:33.597Z,17.7
2018-05-01T11:50:33.607Z,17.74
2018-05-01T11:51:33.594Z,17.75
2018-05-01T11:52:33.589Z,17.79
2018-05-01T11:53:33.596Z,17.79
2018-05-01T11:54:33.324Z,17.81
2018-05-01T11:55:33.572Z,17.78
2018-05-01T11:56:33.576Z,17.82
2018-05-01T11:57:33.577Z,17.84
2018-05-01T11:58:33.566Z,17.87
2018-05-01T11:59:33.584Z,17.9
2018-05-01T12:00:33.563Z,17.82
2018-05-01T12:01:33.553Z,17.89
2018-05-01T12:02:33.662Z,17.78
2018-05-01T12:03:33.550Z,17.87
2018-05-01T12:04:33.743Z,17.77
2018-05-01T12:05:33.559Z,17.9
2018-05-01T12:06:33.306Z,17.9
2018-05-01T12:07:33.540Z,17.92
2018-05-01T12:08:33.279Z,17.93
2018-05-01T12:09:33.027Z,18.1
2018-05-01T12:10:33.673Z,18.05
2018-05-01T12:11:33.267Z,18.1
2018-05-01T12:12:33.521Z,18.15
2018-05-01T12:13:33.512Z,18.08
2018-05-01T12:14:33.530Z,18.07
2018-05-01T12:15:33.518Z,18.12
2018-05-01T12:16:33.517Z,18.08
2018-05-01T12:17:33.507Z,18.08
2018-05-01T12:18:33.831Z,18.12
2018-05-01T12:19:33.510Z,18.15
2018-05-01T12:20:33.261Z,18.2
2018-05-01T12:21:33.486Z,18.23
2018-05-01T12:22:33.494Z,18.29
2018-05-01T12:23:33.483Z,18.35
2018-05-01T12:24:33.476Z,18.32
2018-05-01T12:25:33.492Z,18.3
2018-05-01T12:26:33.477Z,18.33
2018-05-01T12:27:33.517Z,18.32
2018-05-01T12:28:33.461Z,18.32
2018-05-01T12:29:33.463Z,18.32
2018-05-01T12:30:33.457Z,18.39
2018-05-01T12:31:33.207Z,18.33
2018-05-01T12:32:33.232Z,18.32
2018-05-01T12:33:33.193Z,18.29
2018-05-01T12:34:32.938Z,18.35
2018-05-01T12:35:33.445Z,18.26
2018-05-01T12:36:34.001Z,18.35
2018-05-01T12:37:33.182Z,18.32
2018-05-01T12:38:33.439Z,18.3
2018-05-01T12:39:33.436Z,18.36
2018-05-01T12:40:33.430Z,18.29
2018-05-01T12:41:33.447Z,18.35
2018-05-01T12:42:33.366Z,18.48
2018-05-01T12:43:33.162Z,18.32
2018-05-01T12:44:33.414Z,18.36
2018-05-01T12:45:33.413Z,18.35
2018-05-01T12:46:33.408Z,18.3
2018-05-01T12:47:33.402Z,18.33
2018-05-01T12:48:33.627Z,18.26
2018-05-01T12:49:33.151Z,18.32
2018-05-01T12:50:33.141Z,18.29
2018-05-01T12:51:33.142Z,18.27
2018-05-01T12:52:33.393Z,18.26
2018-05-01T12:53:33.384Z,18.21
2018-05-01T12:54:33.383Z,18.2
2018-05-01T12:55:33.379Z,18.32